Terminal Aerodrome Forecast
Issued by NWS Duluth, MN

Home | Current Version | Previous Version | Text Only | Print | Product List | Glossary On
Versions: 1 2 3 4 5 6 7 8 9 10 11 12 13 14 15 16 17 18 19 20 21 22
959
FTUS43 KDLH 241734
TAFDLH
TAF
KDLH 241734Z 2418/2518 14005KT P6SM SCT009 SCT050
     FM242100 16006KT P6SM SCT035 SCT060
     FM250200 08010KT P6SM SCT005 BKN022
     FM250700 08011G17KT 4SM BR OVC012
     FM251200 08014G23KT 2SM BR OVC009=

USA.gov is the U.S. government's official web portal to all federal, state and local government web resources and services.